createdAt,value
2022-08-04T00:01:02.429Z,6.30
2022-08-04T00:03:55.729Z,6.50
2022-08-04T00:06:53.021Z,5.90
2022-08-04T00:09:46.690Z,6.20
2022-08-04T00:12:36.586Z,6.50
2022-08-04T00:15:25.429Z,6.80
2022-08-04T00:18:13.843Z,7.00
2022-08-04T00:21:00.273Z,6.50
2022-08-04T00:24:10.876Z,7.50
2022-08-04T00:26:48.836Z,5.70
2022-08-04T00:29:32.849Z,5.70
2022-08-04T00:32:34.073Z,6.00
2022-08-04T00:35:18.072Z,6.70
2022-08-04T00:38:02.134Z,7.20
2022-08-04T00:40:57.308Z,7.60
2022-08-04T00:43:48.954Z,6.90
2022-08-04T00:46:52.065Z,7.60
2022-08-04T00:50:05.218Z,6.90
2022-08-04T00:53:06.263Z,7.50
2022-08-04T00:56:22.333Z,7.90
2022-08-04T00:59:14.046Z,11.60
2022-08-04T01:02:01.354Z,10.70
2022-08-04T01:04:51.316Z,11.80
2022-08-04T01:08:00.805Z,10.20
2022-08-04T01:10:57.481Z,9.20
2022-08-04T01:14:00.081Z,8.20
2022-08-04T01:16:49.652Z,8.10
2022-08-04T01:20:09.729Z,7.90
2022-08-04T01:23:54.453Z,7.80
2022-08-04T01:26:58.494Z,7.10
2022-08-04T01:29:48.972Z,6.40
2022-08-04T01:32:39.272Z,7.20
2022-08-04T01:35:48.240Z,7.00
2022-08-04T01:38:35.058Z,7.30
2022-08-04T01:41:20.043Z,7.90
2022-08-04T01:44:18.850Z,7.20
2022-08-04T01:47:02.687Z,7.40
2022-08-04T01:49:49.414Z,6.80
2022-08-04T01:52:34.228Z,6.70
2022-08-04T01:55:17.690Z,6.60
2022-08-04T01:58:03.041Z,7.40
2022-08-04T02:00:56.663Z,7.70
2022-08-04T02:04:21.080Z,7.80
2022-08-04T02:07:02.254Z,7.80
2022-08-04T02:09:54.455Z,7.70
2022-08-04T02:13:03.447Z,7.60
2022-08-04T02:15:57.121Z,6.60
2022-08-04T02:18:53.456Z,6.60
2022-08-04T02:21:42.723Z,7.10
2022-08-04T02:24:31.141Z,7.30
2022-08-04T02:27:14.764Z,7.70
2022-08-04T02:30:04.104Z,8.10
2022-08-04T02:32:48.893Z,7.60
2022-08-04T02:35:38.230Z,7.80
2022-08-04T02:38:38.750Z,7.20
2022-08-04T02:41:24.559Z,6.70
2022-08-04T02:44:09.587Z,8.30
2022-08-04T02:46:53.956Z,8.10
2022-08-04T02:49:37.717Z,7.70
2022-08-04T02:52:25.608Z,7.70
2022-08-04T02:55:13.367Z,8.30
2022-08-04T02:57:57.908Z,8.60
2022-08-04T03:00:40.965Z,8.00
2022-08-04T03:03:30.975Z,7.40
2022-08-04T03:06:55.105Z,8.20
2022-08-04T03:10:18.145Z,8.20
2022-08-04T03:13:39.218Z,8.50
2022-08-04T03:16:53.465Z,9.10
2022-08-04T03:20:06.542Z,8.70
2022-08-04T03:23:16.303Z,7.90
2022-08-04T03:26:32.928Z,7.20
2022-08-04T03:29:57.098Z,7.60
2022-08-04T03:33:14.671Z,8.00
2022-08-04T03:36:42.633Z,8.10
2022-08-04T03:39:43.092Z,9.10
2022-08-04T03:42:39.095Z,8.40
2022-08-04T03:45:50.657Z,8.10
2022-08-04T03:49:17.774Z,7.40
2022-08-04T03:52:31.074Z,7.70
2022-08-04T03:55:40.139Z,9.80
2022-08-04T03:58:46.161Z,8.20
2022-08-04T04:02:10.323Z,8.60
2022-08-04T04:05:12.202Z,8.40
2022-08-04T04:08:20.191Z,7.40
2022-08-04T04:11:25.515Z,6.90
2022-08-04T04:14:37.467Z,6.80
2022-08-04T04:17:42.809Z,8.20
2022-08-04T04:20:55.826Z,10.50
2022-08-04T04:24:02.482Z,8.30
2022-08-04T04:27:01.065Z,7.50
2022-08-04T04:30:00.334Z,7.30
2022-08-04T04:33:08.213Z,7.50
2022-08-04T04:36:03.099Z,8.80
2022-08-04T04:39:09.657Z,9.10
2022-08-04T04:42:13.875Z,9.20
2022-08-04T04:45:12.657Z,8.40
2022-08-04T04:48:09.725Z,7.40
2022-08-04T04:51:05.529Z,8.90
2022-08-04T04:54:00.270Z,9.20
2022-08-04T04:56:48.449Z,9.10
2022-08-04T04:59:36.466Z,9.40
2022-08-04T05:02:56.508Z,9.50
2022-08-04T05:06:08.985Z,8.00
2022-08-04T05:09:17.966Z,8.50
2022-08-04T05:14:32.475Z,9.70
2022-08-04T05:15:43.095Z,9.10
2022-08-04T05:18:30.668Z,9.50
2022-08-04T05:21:37.208Z,9.00
2022-08-04T05:24:22.281Z,9.80
2022-08-04T05:27:13.937Z,8.90
2022-08-04T05:30:00.978Z,8.80
2022-08-04T05:32:51.776Z,8.70
2022-08-04T05:36:08.927Z,9.30
2022-08-04T05:38:50.728Z,8.60
2022-08-04T05:41:45.263Z,9.00
2022-08-04T05:44:33.866Z,8.40
2022-08-04T05:47:16.967Z,8.90
2022-08-04T05:50:03.089Z,9.10
2022-08-04T05:52:47.837Z,9.70
2022-08-04T05:55:48.994Z,9.10
2022-08-04T05:58:35.945Z,8.50
2022-08-04T06:01:20.577Z,7.90
2022-08-04T06:04:11.140Z,7.70
2022-08-04T06:06:55.156Z,7.00
2022-08-04T06:09:38.534Z,8.90
2022-08-04T06:12:25.130Z,9.40
2022-08-04T06:15:12.724Z,8.60
2022-08-04T06:18:33.429Z,8.00
2022-08-04T06:21:16.052Z,8.50
2022-08-04T06:24:04.381Z,6.80
2022-08-04T06:26:49.709Z,8.00
2022-08-04T06:29:36.004Z,7.40
2022-08-04T06:32:33.648Z,8.00
2022-08-04T06:35:21.274Z,7.90
2022-08-04T06:38:05.638Z,8.10
2022-08-04T06:40:49.068Z,9.30
2022-08-04T06:43:33.002Z,7.90
2022-08-04T06:46:27.415Z,8.10
2022-08-04T06:49:11.487Z,7.70
2022-08-04T06:51:57.167Z,8.60
2022-08-04T06:54:40.058Z,7.80
2022-08-04T06:57:27.002Z,8.10
2022-08-04T07:00:13.954Z,7.00
2022-08-04T07:02:57.366Z,8.00
2022-08-04T07:05:43.564Z,7.20
2022-08-04T07:08:27.298Z,8.00
2022-08-04T07:11:11.611Z,7.70
2022-08-04T07:13:55.550Z,7.80
2022-08-04T07:16:41.631Z,7.70
2022-08-04T07:19:24.488Z,7.10
2022-08-04T07:22:16.180Z,7.90
2022-08-04T07:25:13.030Z,7.50
2022-08-04T07:27:56.161Z,7.20
2022-08-04T07:30:40.694Z,7.10
2022-08-04T07:33:24.403Z,6.60
2022-08-04T07:36:11.496Z,6.60
2022-08-04T07:38:54.753Z,6.30
2022-08-04T07:41:39.263Z,6.80
2022-08-04T07:44:22.403Z,7.20
2022-08-04T07:47:07.509Z,6.90
2022-08-04T07:49:55.275Z,6.50
2022-08-04T07:52:41.150Z,5.80
2022-08-04T07:55:25.075Z,6.50
2022-08-04T07:58:07.915Z,6.40
2022-08-04T08:00:52.041Z,5.70
2022-08-04T08:03:35.346Z,6.90
2022-08-04T08:06:32.028Z,6.40
2022-08-04T08:09:20.503Z,6.80
2022-08-04T08:12:35.441Z,7.20
2022-08-04T08:15:10.465Z,6.60
2022-08-04T08:17:59.830Z,7.00
2022-08-04T08:20:46.076Z,6.40
2022-08-04T08:23:31.835Z,6.40
2022-08-04T08:26:15.816Z,6.50
2022-08-04T08:28:58.909Z,6.10
2022-08-04T08:31:43.157Z,6.10
2022-08-04T08:34:42.616Z,5.90
2022-08-04T08:37:30.425Z,6.10
2022-08-04T08:40:40.019Z,6.50
2022-08-04T08:44:05.616Z,5.30
2022-08-04T08:47:09.275Z,6.40
2022-08-04T08:50:12.503Z,5.90
2022-08-04T08:53:14.018Z,5.80
2022-08-04T08:56:31.374Z,5.60
2022-08-04T08:59:36.531Z,6.20
2022-08-04T09:02:47.268Z,5.40
2022-08-04T09:05:46.991Z,5.70
2022-08-04T09:08:59.021Z,5.70
2022-08-04T09:11:49.677Z,5.70
2022-08-04T09:14:42.022Z,5.70
2022-08-04T09:17:31.832Z,6.00
2022-08-04T09:20:21.188Z,6.20
2022-08-04T09:23:28.446Z,6.00
2022-08-04T09:26:22.890Z,5.80
2022-08-04T09:29:14.245Z,6.50
2022-08-04T09:32:08.355Z,5.90
2022-08-04T09:35:03.614Z,6.40
2022-08-04T09:38:00.216Z,6.00
2022-08-04T09:40:55.254Z,5.90
2022-08-04T09:43:58.786Z,5.80
2022-08-04T09:47:03.625Z,5.60
2022-08-04T09:49:55.388Z,5.40
2022-08-04T09:52:54.031Z,5.20
2022-08-04T09:55:57.945Z,5.80
2022-08-04T09:58:53.813Z,5.40
2022-08-04T10:01:38.327Z,5.40
2022-08-04T10:04:25.337Z,4.70
2022-08-04T10:07:24.945Z,5.00
2022-08-04T10:10:18.819Z,5.10
2022-08-04T10:13:31.070Z,5.00
2022-08-04T10:16:32.811Z,4.50
2022-08-04T10:19:25.623Z,4.70
2022-08-04T10:22:29.046Z,4.80
2022-08-04T10:26:03.032Z,5.00
2022-08-04T10:28:41.753Z,4.20
2022-08-04T10:31:30.185Z,4.60
2022-08-04T10:34:21.245Z,4.20
2022-08-04T10:37:11.226Z,4.60
2022-08-04T10:40:16.994Z,4.60
2022-08-04T10:43:05.709Z,4.00
2022-08-04T10:46:07.258Z,4.40
2022-08-04T10:48:57.291Z,4.30
2022-08-04T10:51:57.979Z,3.60
2022-08-04T10:54:51.400Z,4.10
2022-08-04T10:57:39.021Z,3.90
2022-08-04T11:00:26.330Z,4.20
2022-08-04T11:03:17.512Z,4.90
2022-08-04T11:06:02.935Z,4.90
2022-08-04T11:08:50.438Z,4.30
2022-08-04T11:12:00.458Z,3.80
2022-08-04T11:14:53.017Z,3.60
2022-08-04T11:17:39.485Z,3.30
2022-08-04T11:20:36.378Z,4.30
2022-08-04T11:23:28.530Z,3.50
2022-08-04T11:26:21.622Z,3.00
2022-08-04T11:29:11.998Z,3.20
2022-08-04T11:31:59.561Z,3.20
2022-08-04T11:34:52.794Z,3.30
2022-08-04T11:37:49.785Z,3.80
2022-08-04T11:40:41.261Z,3.90
2022-08-04T11:44:00.474Z,4.00
2022-08-04T11:46:51.583Z,3.80
2022-08-04T11:49:56.457Z,3.80
2022-08-04T11:52:44.742Z,3.60
2022-08-04T11:55:31.598Z,3.80
2022-08-04T11:58:15.078Z,3.90
2022-08-04T12:01:08.396Z,3.70
2022-08-04T12:04:03.995Z,3.70
2022-08-04T12:07:15.045Z,4.20
2022-08-04T12:10:09.761Z,4.10
2022-08-04T12:13:02.673Z,5.00
2022-08-04T12:15:57.945Z,4.60
2022-08-04T12:18:48.880Z,4.50
2022-08-04T12:21:50.429Z,4.00
2022-08-04T12:24:43.559Z,4.40
2022-08-04T12:27:32.956Z,4.60
2022-08-04T12:31:01.489Z,4.50
2022-08-04T12:34:03.105Z,3.90
2022-08-04T12:36:37.075Z,3.90
2022-08-04T12:39:21.335Z,3.30
2022-08-04T12:42:21.289Z,3.70
2022-08-04T12:45:10.334Z,4.10
2022-08-04T12:47:57.406Z,3.30
2022-08-04T12:50:41.906Z,3.30
2022-08-04T12:56:17.308Z,3.80
2022-08-04T13:02:09.290Z,4.40
2022-08-04T13:04:54.995Z,4.30
2022-08-04T13:07:43.880Z,4.40
2022-08-04T13:10:30.386Z,4.40
2022-08-04T13:13:17.265Z,4.10
2022-08-04T13:16:01.565Z,4.30
2022-08-04T13:18:49.512Z,4.40
2022-08-04T13:21:50.079Z,4.50
2022-08-04T13:24:56.823Z,4.00
2022-08-04T13:27:46.206Z,4.20
2022-08-04T13:30:32.983Z,4.20
2022-08-04T13:33:17.100Z,4.20
2022-08-04T13:36:00.974Z,4.30
2022-08-04T13:38:49.734Z,3.90
2022-08-04T13:41:33.966Z,4.50
2022-08-04T13:44:20.592Z,4.50
2022-08-04T13:47:12.631Z,4.20
2022-08-04T13:50:16.687Z,4.60
2022-08-04T13:53:02.416Z,4.40
2022-08-04T13:55:48.233Z,4.40
2022-08-04T13:58:37.742Z,4.50
2022-08-04T14:01:35.677Z,4.70
2022-08-04T14:04:21.885Z,4.20
2022-08-04T14:07:20.572Z,4.70
2022-08-04T14:10:14.853Z,4.80
2022-08-04T14:12:58.038Z,4.80
2022-08-04T14:16:01.133Z,4.40
2022-08-04T14:18:46.293Z,4.50
2022-08-04T14:21:35.418Z,4.30
2022-08-04T14:24:25.043Z,4.30
2022-08-04T14:27:07.970Z,4.60
2022-08-04T14:29:50.986Z,4.70
2022-08-04T14:32:33.913Z,4.70
2022-08-04T14:35:16.915Z,5.20
2022-08-04T14:38:03.529Z,4.90
2022-08-04T14:40:46.657Z,5.50
2022-08-04T14:43:29.925Z,5.30
2022-08-04T14:46:13.498Z,5.70
2022-08-04T14:49:10.269Z,4.70
2022-08-04T14:51:56.403Z,5.40
2022-08-04T14:54:39.943Z,5.30
2022-08-04T14:57:23.551Z,5.30
2022-08-04T15:00:11.877Z,5.40
2022-08-04T15:03:07.842Z,5.30
2022-08-04T15:06:00.094Z,5.40
2022-08-04T15:08:49.449Z,5.60
2022-08-04T15:14:18.552Z,5.20
2022-08-04T15:17:30.042Z,5.20
2022-08-04T15:20:14.691Z,5.30
2022-08-04T15:22:57.530Z,5.60
2022-08-04T15:25:43.781Z,5.20
2022-08-04T15:28:29.318Z,5.90
2022-08-04T15:32:05.632Z,6.00
2022-08-04T15:34:15.620Z,5.20
2022-08-04T15:37:03.061Z,5.50
2022-08-04T15:39:51.081Z,5.20
2022-08-04T15:42:43.882Z,5.60
2022-08-04T15:46:33.162Z,6.00
2022-08-04T15:48:32.194Z,5.50
2022-08-04T15:51:32.770Z,6.10
2022-08-04T15:54:27.579Z,6.00
2022-08-04T15:57:13.470Z,6.00
2022-08-04T15:59:59.532Z,6.00
2022-08-04T16:02:43.596Z,5.80
2022-08-04T16:05:38.553Z,5.50
2022-08-04T16:08:21.642Z,5.80
2022-08-04T16:11:04.796Z,5.50
2022-08-04T16:14:08.469Z,5.20
2022-08-04T16:16:51.175Z,5.60
2022-08-04T16:19:53.593Z,6.00
2022-08-04T16:22:42.206Z,6.00
2022-08-04T16:25:46.392Z,5.90
2022-08-04T16:28:40.630Z,5.50
2022-08-04T16:31:23.366Z,6.00
2022-08-04T16:34:49.761Z,5.40
2022-08-04T16:37:13.045Z,6.10
2022-08-04T16:40:36.987Z,6.50
2022-08-04T16:43:26.369Z,5.90
2022-08-04T16:46:21.440Z,6.10
2022-08-04T16:49:07.908Z,5.70
2022-08-04T16:51:52.327Z,6.30
2022-08-04T16:54:36.787Z,5.80
2022-08-04T16:57:19.671Z,6.10
2022-08-04T17:00:03.227Z,6.60
2022-08-04T17:02:46.156Z,6.20
2022-08-04T17:05:38.395Z,6.00
2022-08-04T17:08:31.099Z,5.90
2022-08-04T17:11:16.197Z,6.20
2022-08-04T17:14:04.586Z,6.30
2022-08-04T17:16:48.164Z,6.20
2022-08-04T17:19:32.033Z,5.70
2022-08-04T17:22:15.482Z,5.90
2022-08-04T17:24:59.973Z,5.60
2022-08-04T17:28:19.952Z,5.50
2022-08-04T17:30:47.952Z,6.10
2022-08-04T17:33:54.145Z,5.80
2022-08-04T17:36:38.678Z,5.90
2022-08-04T17:39:23.719Z,6.70
2022-08-04T17:42:07.803Z,6.30
2022-08-04T17:45:25.621Z,6.50
2022-08-04T17:51:20.378Z,6.20
2022-08-04T17:54:36.493Z,5.90
2022-08-04T17:57:22.415Z,5.90
2022-08-04T18:00:07.701Z,5.90
2022-08-04T18:03:06.344Z,6.40
2022-08-04T18:06:03.259Z,7.10
2022-08-04T18:08:58.099Z,8.60
2022-08-04T18:11:42.465Z,8.80
2022-08-04T18:14:40.874Z,8.40
2022-08-04T18:18:20.879Z,7.30
2022-08-04T18:20:36.474Z,6.30
2022-08-04T18:23:31.690Z,6.70
2022-08-04T18:26:17.413Z,6.00
2022-08-04T18:29:00.260Z,5.80
2022-08-04T18:31:47.744Z,6.10
2022-08-04T18:34:31.809Z,6.10
2022-08-04T18:38:03.772Z,6.20
2022-08-04T18:40:28.130Z,6.70
2022-08-04T18:43:16.092Z,6.50
2022-08-04T18:45:59.372Z,6.80
2022-08-04T18:48:42.437Z,6.60
2022-08-04T18:51:31.128Z,7.20
2022-08-04T18:54:14.066Z,6.50
2022-08-04T18:57:24.801Z,6.70
2022-08-04T19:00:00.586Z,6.90
2022-08-04T19:02:44.431Z,7.40
2022-08-04T19:05:37.742Z,6.90
2022-08-04T19:08:32.972Z,7.00
2022-08-04T19:11:36.887Z,6.90
2022-08-04T19:14:20.899Z,7.20
2022-08-04T19:17:04.049Z,7.00
2022-08-04T19:19:55.456Z,7.30
2022-08-04T19:24:10.673Z,7.20
2022-08-04T19:26:02.754Z,6.90
2022-08-04T19:28:47.400Z,6.80
2022-08-04T19:31:34.372Z,7.20
2022-08-04T19:34:34.799Z,7.90
2022-08-04T19:37:58.596Z,6.90
2022-08-04T19:40:33.618Z,7.10
2022-08-04T19:43:17.104Z,7.10
2022-08-04T19:46:01.327Z,7.60
2022-08-04T19:48:44.494Z,7.40
2022-08-04T19:51:44.049Z,7.00
2022-08-04T19:54:27.664Z,7.00
2022-08-04T19:57:11.797Z,6.60
2022-08-04T19:59:54.970Z,6.90
2022-08-04T20:02:38.441Z,6.90
2022-08-04T20:05:52.612Z,6.70
2022-08-04T20:08:30.421Z,6.90
2022-08-04T20:11:13.215Z,6.80
2022-08-04T20:13:58.801Z,6.70
2022-08-04T20:16:44.412Z,6.80
2022-08-04T20:22:52.130Z,6.50
2022-08-04T20:25:36.015Z,7.20
2022-08-04T20:28:25.727Z,8.00
2022-08-04T20:31:18.742Z,6.90
2022-08-04T20:34:01.816Z,7.50
2022-08-04T20:36:50.057Z,7.10
2022-08-04T20:39:32.991Z,7.30
2022-08-04T20:42:15.950Z,7.50
2022-08-04T20:44:58.991Z,7.50
2022-08-04T20:47:41.705Z,7.60
2022-08-04T20:50:29.486Z,7.60
2022-08-04T20:53:16.514Z,7.10
2022-08-04T20:56:19.065Z,7.60
2022-08-04T20:59:13.347Z,7.20
2022-08-04T21:02:00.282Z,7.60
2022-08-04T21:04:48.450Z,7.00
2022-08-04T21:07:36.424Z,7.10
2022-08-04T21:10:27.367Z,7.20
2022-08-04T21:13:10.072Z,7.40
2022-08-04T21:15:59.340Z,7.60
2022-08-04T21:18:42.343Z,7.20
2022-08-04T21:21:35.354Z,7.30
2022-08-04T21:24:18.999Z,7.10
2022-08-04T21:27:09.790Z,7.40
2022-08-04T21:29:52.824Z,7.70
2022-08-04T21:32:35.771Z,7.80
2022-08-04T21:35:19.073Z,7.70
2022-08-04T21:38:16.540Z,7.50
2022-08-04T21:41:01.984Z,7.60
2022-08-04T21:43:45.571Z,7.40
2022-08-04T21:46:30.132Z,7.30
2022-08-04T21:49:14.227Z,7.60
2022-08-04T21:52:01.488Z,8.00
2022-08-04T21:54:54.109Z,7.50
2022-08-04T21:57:38.403Z,7.50
2022-08-04T22:00:25.632Z,7.60
2022-08-04T22:03:23.415Z,8.00
2022-08-04T22:06:17.273Z,7.30
2022-08-04T22:09:00.674Z,7.70
2022-08-04T22:11:50.309Z,7.60
2022-08-04T22:14:34.715Z,7.30
2022-08-04T22:17:18.250Z,8.10
2022-08-04T22:23:15.337Z,7.20
2022-08-04T22:25:59.631Z,7.40
2022-08-04T22:28:45.001Z,7.30
2022-08-04T22:31:28.014Z,8.30
2022-08-04T22:34:30.784Z,7.40
2022-08-04T22:37:14.333Z,7.40
2022-08-04T22:39:57.270Z,8.00
2022-08-04T22:42:40.464Z,7.70
2022-08-04T22:45:28.747Z,7.70
2022-08-04T22:48:11.920Z,7.20
2022-08-04T22:50:55.488Z,7.60
2022-08-04T22:53:38.707Z,8.20
2022-08-04T22:56:37.153Z,8.00
2022-08-04T22:59:21.506Z,8.10
2022-08-04T23:02:04.745Z,7.70
2022-08-04T23:04:52.362Z,8.20
2022-08-04T23:07:47.330Z,7.90
2022-08-04T23:10:33.026Z,7.40
2022-08-04T23:13:16.168Z,8.10
2022-08-04T23:16:04.747Z,7.70
2022-08-04T23:18:52.681Z,7.60
2022-08-04T23:21:41.078Z,7.90
2022-08-04T23:24:30.412Z,7.50
2022-08-04T23:27:13.239Z,7.10
2022-08-04T23:29:55.932Z,7.60
2022-08-04T23:32:38.786Z,7.70
2022-08-04T23:35:22.090Z,7.50
2022-08-04T23:38:30.523Z,7.70
2022-08-04T23:41:14.529Z,7.40
2022-08-04T23:43:59.994Z,7.30
2022-08-04T23:46:42.889Z,7.40
2022-08-04T23:49:43.847Z,7.10
2022-08-04T23:52:30.151Z,7.20
2022-08-04T23:55:18.928Z,7.60
2022-08-04T23:58:16.699Z,6.90
